Aktuell sind 102 Gäste und 2 Mitglieder online

[source: ADDS]
METAR
EDVE 270550Z 10003KT CAVOK 00/00 Q1027

EDDV 270620Z VRB02KT CAVOK 04/01 Q1026 NOSIG

ETHS 270520Z 09003KT 9999 FEW250 M03/M04 Q1026 BLU+BLU+

ETHC 270520Z 06002KT 9999 MIFG FEW250 01/M01 Q1027 BLU+BLU+

EDVK 270620Z 10003KT CAVOK 03/M01 Q1026

TAF
TAF EDVE 270500Z 2706/2715 VRB03KT CAVOK

TAF EDDV 270500Z 2706/2806 10005KT CAVOK BECMG 2707/2710 16004KT

TAF ETHS 270422Z 2705/2714 22004KT 9999 NSW SCT240 PROB30 2705/2706 VRB02KT 3000 MIFG SCT240

TAF ETHC 270418Z 2705/2714 19005KT 9999 NSW SCT250

TAF EDVK 270620Z 2707/2715 12005KT CAVOK

SR / SS: 05:01 / 17:43 UTC (EDVE 2017-03-27)
Neue Aquila 211 mit NVFR Zulassung und Glascockpit bestellt! ETA April 2017! +++ Herzlich Willkommen im Verein Mike! +++ Georg startet seine Ausbildung! Viel Erfolg und always happy landings! +++ Wir begrüßen Lasse als neues Mitglied im Verein und wünschen always happy landings! +++ Hallo und herzlichen Willkommen im Verein Thomas! +++ Die Termine für den nächsten BZF Kurs sind online! +++ Lukas hat das BZF bestanden! Herzlichen Glückwunsch! +++ Die Mitgliederversammlung am 20.12.2016 genehmigt den Antrag zur Flottenerneuerung +++ Alexander hat seine PPL(A)-Prüfung bestanden! Herzlichen Glückwunsch und Always Happy Landings! +++ Heinrich hat sich freigeflogen. Herzlichen Glückwunsch und always happy landings! +++ Wir wünschen Klaus viel Erfolg bei seiner Ausbildung! +++ Herzlichen Willkommen im Verein Uwe! Viel Spaß bei deiner Ausbildung! +++ Gunnar hat seine LAPL-Prüfung bestanden! Herzlichen Glückwunsch und always happy landings! +++ Christian hat die Theoretische Prüfung bestanden! Herzlichen Glückwunsch! +++ Wir begrüßen drei neue Mitglieder im Verein! Herzlich Willkommen, Florian, Petra und Jürgen! +++

 

Das Prinzip des Heizgerätes zum Vorheizen unserer Flugzeuge ist einfach: Ein Gasbrenner erhitzt Luft und bläst sie in eine Blechkiste. Dort beschleunigt ein großer Lüfter die Luft und drückt sie durch Luftschläuche in den Motorraum eines Flugzeuges. Nach etwa 20-30 Minuten Vorheizzeit ist eine ausreichende Temperatur zum Motorstart vorhanden.

Weiterlesen ...

Auch im Winter stehen unsere Flugzeuge sicher untergebracht in unserer Halle. Schneelast- und sturmwinderprobt ist sie bereits und hat diese Wettereinflüsse prima überstanden. Im Winter sind bei Schnee und Eis ein paar Erfahrungswerte nützlich:

Weiterlesen ...

Die Halle erlaubt eine einfache Aufstellung der Luftfahrzeuge. Jedem Flugzeug ist ein fester Platz zugewiesen der es erlaubt, mit geringem Aufwand das gewünschte Flugzeug nach vorne zu holen. Ziel bei der gewählten Aufstellung ist es,

Weiterlesen ...

Das Tor der Halle ist ein sogenanntes Planentor, es funktioniert ungefähr so wie ein Duschvorhang. Die linke und die rechte Hälfte des Tores waren in der Mitte durch sechs Gurte verbunden (drei an der Innenseite, drei an der Außenseite), wenn das Tor geschlossen ist.

Der obere Gurt (innen und außen) ist für normal große Leute

Weiterlesen ...

Die installierte elektrische Anlage ist wartungsfrei. Das Licht wird automatisch, durch Bewegungssensoren gesteuert, ein- und ausgeschaltet.

Weiterlesen ...

Letztes NOTAM EDVE
von 03.04.2017 0600Z bis 26.05.2017 1800Z
MON-FRI 0600-1800
OBSTACLE CLEARANCE SURFACE PENETRATED BY MOBILE CRANE. PSN 430M BEYOND RWY 08, 480M S OF RCL. 521853N 0103312E. [more]


Letztes NOTAM EDBC
von 16.03.2017 0000Z bis 12.04.2017 2359Z
AEROBATIC FLIGHT BOX MAGDEBURG-COCHSTEDT COORD CHG INTO 515122N 0112505E. REF AIP VFR ENR 1-77, EFF DATE 16.03.2017.
GND- 4000FT AM [more]


Letztes NOTAM EDVM
von 01.03.2017 0600Z bis 31.03.2017 2000Z
GRASS RWY 07/25 PPR.

Letztes NOTAM EDOV
von 22.04.2017 0700Z bis 23.04.2017 1826Z
DAILY 0700-SS
SPECIAL ACTIVITY AREA ESTABLISHED FOR AEROBATIC FLIGHTS AT STENDAL BORSTEL 3NM RADIUS CENTERED ON 523744N 0114912E. [more]


Letztes NOTAM EDVI
von 16.02.2017 1238Z bis 30.04.2017 2359Z
THR GRASS RWY 31 DISPLACED 100M.

Letztes NOTAM EDDV
von 18.05.2017 0700Z bis 18.05.2017 1300Z
ILS RWY 27R, LO HANNOVER HA 320 ON MAINTENANCE, DO NOT USE, FALSE INDICATIONS POSS.

Letztes NOTAM EDVK
von 07.04.2016 0530Z bis PERM
HEL LDG/DEP HEL AREA SOUTH HAVE TO AVOID TO OVERFLY THE CAMP SW OF HELIPORT.) DUPE

Letztes NOTAM ETHS
von 24.03.2017 0919Z bis 31.03.2017 1000Z
NORTHLANE 09/27 CLSD.

EDCB.png          aerodata150     Radio38